sensor_id;sensor_type;location;lat;lon;timestamp;P1;durP1;ratioP1;P2;durP2;ratioP2
52031;SDS011;38044;45.148;39.604;2022-12-29T00:02:15;22.55;;;13.13;;
52031;SDS011;38044;45.148;39.604;2022-12-29T00:04:41;18.42;;;11.18;;
52031;SDS011;38044;45.148;39.604;2022-12-29T00:07:08;16.20;;;9.77;;
52031;SDS011;38044;45.148;39.604;2022-12-29T00:09:34;17.38;;;8.63;;
52031;SDS011;38044;45.148;39.604;2022-12-29T00:12:00;15.45;;;8.30;;
52031;SDS011;38044;45.148;39.604;2022-12-29T00:14:28;17.42;;;9.05;;
52031;SDS011;38044;45.148;39.604;2022-12-29T00:17:12;20.70;;;9.00;;
52031;SDS011;38044;45.148;39.604;2022-12-29T00:19:38;14.63;;;8.63;;
52031;SDS011;38044;45.148;39.604;2022-12-29T00:22:23;18.35;;;7.75;;
52031;SDS011;38044;45.148;39.604;2022-12-29T00:25:09;17.20;;;7.72;;
52031;SDS011;38044;45.148;39.604;2022-12-29T00:27:54;12.90;;;7.20;;
52031;SDS011;38044;45.148;39.604;2022-12-29T00:30:39;10.20;;;6.47;;
52031;SDS011;38044;45.148;39.604;2022-12-29T00:33:28;14.85;;;7.43;;
52031;SDS011;38044;45.148;39.604;2022-12-29T00:36:31;15.02;;;8.18;;
52031;SDS011;38044;45.148;39.604;2022-12-29T00:39:04;16.25;;;7.82;;
52031;SDS011;38044;45.148;39.604;2022-12-29T00:41:53;14.98;;;8.40;;
52031;SDS011;38044;45.148;39.604;2022-12-29T00:44:37;15.18;;;8.02;;
52031;SDS011;38044;45.148;39.604;2022-12-29T00:47:03;15.60;;;8.02;;
52031;SDS011;38044;45.148;39.604;2022-12-29T00:49:29;12.20;;;6.35;;
52031;SDS011;38044;45.148;39.604;2022-12-29T00:51:57;18.52;;;7.57;;
52031;SDS011;38044;45.148;39.604;2022-12-29T00:54:27;15.43;;;7.72;;
52031;SDS011;38044;45.148;39.604;2022-12-29T00:56:57;19.83;;;8.50;;
52031;SDS011;38044;45.148;39.604;2022-12-29T00:59:23;12.07;;;7.78;;
52031;SDS011;38044;45.148;39.604;2022-12-29T01:01:49;14.55;;;8.20;;
52031;SDS011;38044;45.148;39.604;2022-12-29T01:04:17;16.70;;;9.23;;
52031;SDS011;38044;45.148;39.604;2022-12-29T01:06:43;15.30;;;8.57;;
52031;SDS011;38044;45.148;39.604;2022-12-29T01:09:10;20.83;;;9.75;;
52031;SDS011;38044;45.148;39.604;2022-12-29T01:11:55;17.98;;;11.07;;
52031;SDS011;38044;45.148;39.604;2022-12-29T01:14:21;19.40;;;13.90;;
52031;SDS011;38044;45.148;39.604;2022-12-29T01:16:49;23.58;;;17.67;;
52031;SDS011;38044;45.148;39.604;2022-12-29T01:19:16;28.80;;;16.75;;
52031;SDS011;38044;45.148;39.604;2022-12-29T01:21:44;20.05;;;16.00;;
52031;SDS011;38044;45.148;39.604;2022-12-29T01:24:10;26.80;;;17.27;;
52031;SDS011;38044;45.148;39.604;2022-12-29T01:26:36;25.00;;;16.08;;
52031;SDS011;38044;45.148;39.604;2022-12-29T01:29:03;26.02;;;15.40;;
52031;SDS011;38044;45.148;39.604;2022-12-29T01:31:28;19.23;;;12.27;;
52031;SDS011;38044;45.148;39.604;2022-12-29T01:33:54;19.95;;;11.52;;
52031;SDS011;38044;45.148;39.604;2022-12-29T01:36:20;18.05;;;9.68;;
52031;SDS011;38044;45.148;39.604;2022-12-29T01:38:46;19.08;;;8.77;;
52031;SDS011;38044;45.148;39.604;2022-12-29T01:41:14;15.93;;;8.63;;
52031;SDS011;38044;45.148;39.604;2022-12-29T01:43:42;16.23;;;8.45;;
52031;SDS011;38044;45.148;39.604;2022-12-29T01:54:15;41.67;;;14.30;;
52031;SDS011;38044;45.148;39.604;2022-12-29T01:56:49;26.40;;;11.25;;
52031;SDS011;38044;45.148;39.604;2022-12-29T01:59:18;38.65;;;15.10;;
52031;SDS011;38044;45.148;39.604;2022-12-29T02:01:48;42.28;;;15.77;;
52031;SDS011;38044;45.148;39.604;2022-12-29T02:04:14;42.85;;;14.32;;
52031;SDS011;38044;45.148;39.604;2022-12-29T02:06:41;43.63;;;15.18;;
52031;SDS011;38044;45.148;39.604;2022-12-29T02:09:13;46.70;;;14.43;;
52031;SDS011;38044;45.148;39.604;2022-12-29T02:11:39;37.40;;;13.85;;
52031;SDS011;38044;45.148;39.604;2022-12-29T02:14:09;28.80;;;11.43;;
52031;SDS011;38044;45.148;39.604;2022-12-29T02:19:41;29.95;;;11.18;;
52031;SDS011;38044;45.148;39.604;2022-12-29T02:25:43;39.85;;;14.38;;
52031;SDS011;38044;45.148;39.604;2022-12-29T02:28:23;28.35;;;13.38;;
52031;SDS011;38044;45.148;39.604;2022-12-29T02:31:37;44.13;;;15.38;;
52031;SDS011;38044;45.148;39.604;2022-12-29T02:39:50;37.08;;;15.10;;
52031;SDS011;38044;45.148;39.604;2022-12-29T02:45:04;34.58;;;14.65;;
52031;SDS011;38044;45.148;39.604;2022-12-29T02:48:01;33.03;;;12.70;;
52031;SDS011;38044;45.148;39.604;2022-12-29T02:50:36;27.10;;;13.13;;
52031;SDS011;38044;45.148;39.604;2022-12-29T02:53:23;29.25;;;12.77;;
52031;SDS011;38044;45.148;39.604;2022-12-29T02:56:09;36.35;;;15.13;;
52031;SDS011;38044;45.148;39.604;2022-12-29T02:58:35;30.05;;;13.65;;
52031;SDS011;38044;45.148;39.604;2022-12-29T03:01:16;32.83;;;14.63;;
52031;SDS011;38044;45.148;39.604;2022-12-29T03:09:21;63.28;;;22.27;;
52031;SDS011;38044;45.148;39.604;2022-12-29T03:11:59;52.60;;;20.48;;
52031;SDS011;38044;45.148;39.604;2022-12-29T03:14:54;68.10;;;23.20;;
52031;SDS011;38044;45.148;39.604;2022-12-29T03:20:14;52.15;;;19.48;;
52031;SDS011;38044;45.148;39.604;2022-12-29T03:22:46;58.53;;;22.08;;
52031;SDS011;38044;45.148;39.604;2022-12-29T03:25:15;74.68;;;24.83;;
52031;SDS011;38044;45.148;39.604;2022-12-29T03:27:55;37.97;;;18.50;;
52031;SDS011;38044;45.148;39.604;2022-12-29T03:30:33;44.35;;;18.45;;
52031;SDS011;38044;45.148;39.604;2022-12-29T03:33:02;70.60;;;23.70;;
52031;SDS011;38044;45.148;39.604;2022-12-29T03:35:33;41.58;;;17.52;;
52031;SDS011;38044;45.148;39.604;2022-12-29T03:41:00;27.08;;;13.27;;
52031;SDS011;38044;45.148;39.604;2022-12-29T03:43:31;21.60;;;12.40;;
52031;SDS011;38044;45.148;39.604;2022-12-29T03:45:57;23.05;;;12.95;;
52031;SDS011;38044;45.148;39.604;2022-12-29T03:48:23;23.83;;;13.13;;
52031;SDS011;38044;45.148;39.604;2022-12-29T03:50:49;29.15;;;13.13;;
52031;SDS011;38044;45.148;39.604;2022-12-29T03:53:14;22.85;;;12.98;;
52031;SDS011;38044;45.148;39.604;2022-12-29T03:55:41;24.60;;;14.57;;
52031;SDS011;38044;45.148;39.604;2022-12-29T03:58:06;23.58;;;12.98;;
52031;SDS011;38044;45.148;39.604;2022-12-29T04:00:32;26.42;;;13.75;;
52031;SDS011;38044;45.148;39.604;2022-12-29T04:02:58;28.92;;;14.40;;
52031;SDS011;38044;45.148;39.604;2022-12-29T04:05:24;26.63;;;13.38;;
52031;SDS011;38044;45.148;39.604;2022-12-29T04:07:50;29.52;;;14.65;;
52031;SDS011;38044;45.148;39.604;2022-12-29T04:10:16;24.92;;;15.13;;
52031;SDS011;38044;45.148;39.604;2022-12-29T04:12:42;28.95;;;15.93;;
52031;SDS011;38044;45.148;39.604;2022-12-29T04:15:13;28.58;;;15.43;;
52031;SDS011;38044;45.148;39.604;2022-12-29T04:17:39;25.77;;;14.18;;
52031;SDS011;38044;45.148;39.604;2022-12-29T04:20:05;25.88;;;14.25;;
52031;SDS011;38044;45.148;39.604;2022-12-29T04:22:56;23.27;;;14.00;;
52031;SDS011;38044;45.148;39.604;2022-12-29T04:25:26;31.17;;;14.48;;
52031;SDS011;38044;45.148;39.604;2022-12-29T04:27:52;30.00;;;17.10;;
52031;SDS011;38044;45.148;39.604;2022-12-29T04:30:18;28.55;;;17.27;;
52031;SDS011;38044;45.148;39.604;2022-12-29T04:32:44;26.75;;;16.90;;
52031;SDS011;38044;45.148;39.604;2022-12-29T04:35:10;31.73;;;19.30;;
52031;SDS011;38044;45.148;39.604;2022-12-29T04:37:36;27.27;;;16.73;;
52031;SDS011;38044;45.148;39.604;2022-12-29T04:40:02;31.20;;;17.50;;
52031;SDS011;38044;45.148;39.604;2022-12-29T04:42:28;27.20;;;15.50;;
52031;SDS011;38044;45.148;39.604;2022-12-29T04:44:53;31.20;;;14.95;;
52031;SDS011;38044;45.148;39.604;2022-12-29T04:47:19;24.35;;;12.57;;
52031;SDS011;38044;45.148;39.604;2022-12-29T04:49:45;22.33;;;12.63;;
52031;SDS011;38044;45.148;39.604;2022-12-29T04:52:11;23.65;;;13.02;;
52031;SDS011;38044;45.148;39.604;2022-12-29T04:54:37;22.77;;;12.82;;
52031;SDS011;38044;45.148;39.604;2022-12-29T04:57:02;21.05;;;12.35;;
52031;SDS011;38044;45.148;39.604;2022-12-29T04:59:28;23.52;;;12.38;;
52031;SDS011;38044;45.148;39.604;2022-12-29T05:01:54;23.27;;;11.75;;
52031;SDS011;38044;45.148;39.604;2022-12-29T05:04:20;24.05;;;14.90;;
52031;SDS011;38044;45.148;39.604;2022-12-29T05:06:46;35.92;;;24.95;;
52031;SDS011;38044;45.148;39.604;2022-12-29T05:09:11;51.60;;;34.33;;
52031;SDS011;38044;45.148;39.604;2022-12-29T05:11:37;47.70;;;33.88;;
52031;SDS011;38044;45.148;39.604;2022-12-29T05:14:03;44.10;;;32.97;;
52031;SDS011;38044;45.148;39.604;2022-12-29T05:16:29;43.03;;;32.60;;
52031;SDS011;38044;45.148;39.604;2022-12-29T05:18:55;48.70;;;34.95;;
52031;SDS011;38044;45.148;39.604;2022-12-29T05:21:21;48.25;;;37.30;;
52031;SDS011;38044;45.148;39.604;2022-12-29T05:23:46;53.58;;;41.35;;
52031;SDS011;38044;45.148;39.604;2022-12-29T05:26:12;47.47;;;37.75;;
52031;SDS011;38044;45.148;39.604;2022-12-29T05:28:38;38.03;;;29.50;;
52031;SDS011;38044;45.148;39.604;2022-12-29T05:31:04;26.67;;;18.65;;
52031;SDS011;38044;45.148;39.604;2022-12-29T05:33:30;23.42;;;12.88;;
52031;SDS011;38044;45.148;39.604;2022-12-29T05:35:55;21.20;;;11.98;;
52031;SDS011;38044;45.148;39.604;2022-12-29T05:38:21;18.10;;;9.55;;
52031;SDS011;38044;45.148;39.604;2022-12-29T05:40:47;18.13;;;9.55;;
52031;SDS011;38044;45.148;39.604;2022-12-29T05:43:13;21.45;;;10.38;;
52031;SDS011;38044;45.148;39.604;2022-12-29T05:45:39;17.67;;;9.73;;
52031;SDS011;38044;45.148;39.604;2022-12-29T05:48:05;16.42;;;8.32;;
52031;SDS011;38044;45.148;39.604;2022-12-29T05:50:30;14.32;;;8.05;;
52031;SDS011;38044;45.148;39.604;2022-12-29T05:52:56;14.40;;;8.48;;
52031;SDS011;38044;45.148;39.604;2022-12-29T05:55:22;14.52;;;8.77;;
52031;SDS011;38044;45.148;39.604;2022-12-29T05:57:48;17.48;;;10.93;;
52031;SDS011;38044;45.148;39.604;2022-12-29T06:00:14;22.45;;;14.55;;
52031;SDS011;38044;45.148;39.604;2022-12-29T06:02:40;30.27;;;21.20;;
52031;SDS011;38044;45.148;39.604;2022-12-29T06:05:06;22.08;;;16.42;;
52031;SDS011;38044;45.148;39.604;2022-12-29T06:07:33;23.75;;;14.90;;
52031;SDS011;38044;45.148;39.604;2022-12-29T06:09:59;25.38;;;18.52;;
52031;SDS011;38044;45.148;39.604;2022-12-29T06:12:25;27.60;;;19.55;;
52031;SDS011;38044;45.148;39.604;2022-12-29T06:14:51;27.50;;;18.25;;
52031;SDS011;38044;45.148;39.604;2022-12-29T06:17:17;14.27;;;9.05;;
52031;SDS011;38044;45.148;39.604;2022-12-29T06:19:42;18.13;;;11.77;;
52031;SDS011;38044;45.148;39.604;2022-12-29T06:22:09;24.40;;;15.90;;
52031;SDS011;38044;45.148;39.604;2022-12-29T06:24:37;20.95;;;12.98;;
52031;SDS011;38044;45.148;39.604;2022-12-29T06:27:03;16.58;;;11.75;;
52031;SDS011;38044;45.148;39.604;2022-12-29T06:29:29;19.30;;;13.43;;
52031;SDS011;38044;45.148;39.604;2022-12-29T06:31:55;21.50;;;15.38;;
52031;SDS011;38044;45.148;39.604;2022-12-29T06:34:24;15.77;;;11.65;;
52031;SDS011;38044;45.148;39.604;2022-12-29T06:36:50;14.23;;;11.52;;
52031;SDS011;38044;45.148;39.604;2022-12-29T06:39:16;19.00;;;11.57;;
52031;SDS011;38044;45.148;39.604;2022-12-29T06:41:42;14.57;;;9.27;;
52031;SDS011;38044;45.148;39.604;2022-12-29T06:44:08;16.75;;;8.93;;
52031;SDS011;38044;45.148;39.604;2022-12-29T06:46:34;12.60;;;7.93;;
52031;SDS011;38044;45.148;39.604;2022-12-29T06:49:00;16.52;;;9.57;;
52031;SDS011;38044;45.148;39.604;2022-12-29T06:51:25;12.15;;;7.47;;
52031;SDS011;38044;45.148;39.604;2022-12-29T06:53:51;11.32;;;7.50;;
52031;SDS011;38044;45.148;39.604;2022-12-29T06:56:17;19.92;;;9.32;;
52031;SDS011;38044;45.148;39.604;2022-12-29T06:58:43;11.82;;;8.10;;
52031;SDS011;38044;45.148;39.604;2022-12-29T07:01:09;12.73;;;7.50;;
52031;SDS011;38044;45.148;39.604;2022-12-29T07:03:35;8.27;;;5.78;;
52031;SDS011;38044;45.148;39.604;2022-12-29T07:06:00;9.52;;;5.50;;
52031;SDS011;38044;45.148;39.604;2022-12-29T07:08:26;10.52;;;5.47;;
52031;SDS011;38044;45.148;39.604;2022-12-29T07:10:52;7.93;;;5.72;;
52031;SDS011;38044;45.148;39.604;2022-12-29T07:13:18;8.35;;;5.47;;
52031;SDS011;38044;45.148;39.604;2022-12-29T07:15:44;7.32;;;4.88;;
52031;SDS011;38044;45.148;39.604;2022-12-29T07:18:10;8.48;;;4.90;;
52031;SDS011;38044;45.148;39.604;2022-12-29T07:20:35;10.13;;;4.82;;
52031;SDS011;38044;45.148;39.604;2022-12-29T07:23:02;9.43;;;5.03;;
52031;SDS011;38044;45.148;39.604;2022-12-29T07:25:28;6.05;;;4.35;;
52031;SDS011;38044;45.148;39.604;2022-12-29T07:27:54;7.25;;;4.55;;
52031;SDS011;38044;45.148;39.604;2022-12-29T07:30:20;7.07;;;4.30;;
52031;SDS011;38044;45.148;39.604;2022-12-29T07:32:46;8.18;;;4.45;;
52031;SDS011;38044;45.148;39.604;2022-12-29T07:35:12;8.30;;;4.50;;
52031;SDS011;38044;45.148;39.604;2022-12-29T07:37:38;6.05;;;4.38;;
52031;SDS011;38044;45.148;39.604;2022-12-29T07:40:04;6.32;;;4.45;;
52031;SDS011;38044;45.148;39.604;2022-12-29T07:42:30;9.05;;;4.45;;
52031;SDS011;38044;45.148;39.604;2022-12-29T07:44:57;8.57;;;4.43;;
52031;SDS011;38044;45.148;39.604;2022-12-29T07:47:22;7.40;;;4.50;;
52031;SDS011;38044;45.148;39.604;2022-12-29T07:49:48;9.57;;;5.50;;
52031;SDS011;38044;45.148;39.604;2022-12-29T07:52:15;5.55;;;4.30;;
52031;SDS011;38044;45.148;39.604;2022-12-29T07:54:41;7.13;;;4.55;;
52031;SDS011;38044;45.148;39.604;2022-12-29T07:57:07;7.43;;;4.88;;
52031;SDS011;38044;45.148;39.604;2022-12-29T07:59:34;7.10;;;4.65;;
52031;SDS011;38044;45.148;39.604;2022-12-29T08:02:00;8.35;;;5.10;;
52031;SDS011;38044;45.148;39.604;2022-12-29T08:04:26;5.82;;;4.60;;
52031;SDS011;38044;45.148;39.604;2022-12-29T08:06:52;8.05;;;4.80;;
52031;SDS011;38044;45.148;39.604;2022-12-29T08:09:18;9.10;;;5.15;;
52031;SDS011;38044;45.148;39.604;2022-12-29T08:11:44;9.13;;;5.03;;
52031;SDS011;38044;45.148;39.604;2022-12-29T08:14:10;10.90;;;5.47;;
52031;SDS011;38044;45.148;39.604;2022-12-29T08:16:36;8.13;;;4.82;;
52031;SDS011;38044;45.148;39.604;2022-12-29T08:19:02;10.07;;;5.35;;
52031;SDS011;38044;45.148;39.604;2022-12-29T08:21:30;8.35;;;4.65;;
52031;SDS011;38044;45.148;39.604;2022-12-29T08:23:56;7.63;;;5.05;;
52031;SDS011;38044;45.148;39.604;2022-12-29T08:26:24;7.30;;;4.82;;
52031;SDS011;38044;45.148;39.604;2022-12-29T08:28:52;9.25;;;5.65;;
52031;SDS011;38044;45.148;39.604;2022-12-29T08:31:18;11.07;;;6.30;;
52031;SDS011;38044;45.148;39.604;2022-12-29T08:33:44;6.40;;;5.10;;
52031;SDS011;38044;45.148;39.604;2022-12-29T08:36:10;11.45;;;5.70;;
52031;SDS011;38044;45.148;39.604;2022-12-29T08:38:36;10.68;;;5.18;;
52031;SDS011;38044;45.148;39.604;2022-12-29T08:41:02;13.00;;;6.32;;
52031;SDS011;38044;45.148;39.604;2022-12-29T08:43:28;8.27;;;7.30;;
52031;SDS011;38044;45.148;39.604;2022-12-29T08:45:55;8.43;;;5.78;;
52031;SDS011;38044;45.148;39.604;2022-12-29T08:48:23;7.90;;;5.55;;
52031;SDS011;38044;45.148;39.604;2022-12-29T08:50:49;8.85;;;5.88;;
52031;SDS011;38044;45.148;39.604;2022-12-29T08:53:16;8.13;;;5.03;;
52031;SDS011;38044;45.148;39.604;2022-12-29T08:55:44;10.00;;;5.75;;
52031;SDS011;38044;45.148;39.604;2022-12-29T08:58:11;8.50;;;5.45;;
52031;SDS011;38044;45.148;39.604;2022-12-29T09:00:40;16.98;;;10.65;;
52031;SDS011;38044;45.148;39.604;2022-12-29T09:03:06;7.82;;;5.55;;
52031;SDS011;38044;45.148;39.604;2022-12-29T09:05:32;26.80;;;20.15;;
52031;SDS011;38044;45.148;39.604;2022-12-29T09:07:58;20.25;;;12.77;;
52031;SDS011;38044;45.148;39.604;2022-12-29T09:10:30;10.07;;;6.47;;
52031;SDS011;38044;45.148;39.604;2022-12-29T09:12:59;11.85;;;7.18;;
52031;SDS011;38044;45.148;39.604;2022-12-29T09:15:25;16.70;;;10.10;;
52031;SDS011;38044;45.148;39.604;2022-12-29T09:17:50;11.25;;;7.35;;
52031;SDS011;38044;45.148;39.604;2022-12-29T09:20:17;9.43;;;7.50;;
52031;SDS011;38044;45.148;39.604;2022-12-29T09:22:44;8.25;;;4.32;;
52031;SDS011;38044;45.148;39.604;2022-12-29T09:25:11;15.30;;;9.20;;
52031;SDS011;38044;45.148;39.604;2022-12-29T09:27:39;11.48;;;6.22;;
52031;SDS011;38044;45.148;39.604;2022-12-29T09:30:09;8.95;;;7.13;;
52031;SDS011;38044;45.148;39.604;2022-12-29T09:32:36;10.23;;;6.70;;
52031;SDS011;38044;45.148;39.604;2022-12-29T09:35:02;9.38;;;5.78;;
52031;SDS011;38044;45.148;39.604;2022-12-29T09:37:29;9.18;;;6.25;;
52031;SDS011;38044;45.148;39.604;2022-12-29T09:39:55;6.97;;;4.70;;
52031;SDS011;38044;45.148;39.604;2022-12-29T09:45:01;10.95;;;7.20;;
52031;SDS011;38044;45.148;39.604;2022-12-29T09:47:29;25.02;;;16.90;;
52031;SDS011;38044;45.148;39.604;2022-12-29T09:50:01;42.63;;;29.98;;
52031;SDS011;38044;45.148;39.604;2022-12-29T09:53:05;19.52;;;13.50;;
52031;SDS011;38044;45.148;39.604;2022-12-29T09:55:49;9.05;;;6.05;;
52031;SDS011;38044;45.148;39.604;2022-12-29T10:03:22;11.95;;;9.55;;
52031;SDS011;38044;45.148;39.604;2022-12-29T10:08:42;20.42;;;12.18;;
52031;SDS011;38044;45.148;39.604;2022-12-29T10:22:54;18.92;;;12.82;;
52031;SDS011;38044;45.148;39.604;2022-12-29T10:25:08;5.20;;;3.90;;
52031;SDS011;38044;45.148;39.604;2022-12-29T10:27:48;27.80;;;16.33;;
52031;SDS011;38044;45.148;39.604;2022-12-29T10:30:16;7.47;;;3.30;;
52031;SDS011;38044;45.148;39.604;2022-12-29T10:32:51;3.75;;;2.72;;
52031;SDS011;38044;45.148;39.604;2022-12-29T10:35:23;11.25;;;8.35;;
52031;SDS011;38044;45.148;39.604;2022-12-29T10:43:07;6.10;;;2.22;;
52031;SDS011;38044;45.148;39.604;2022-12-29T10:45:49;11.25;;;8.43;;
52031;SDS011;38044;45.148;39.604;2022-12-29T10:48:20;18.98;;;12.27;;
52031;SDS011;38044;45.148;39.604;2022-12-29T10:50:50;5.65;;;2.67;;
52031;SDS011;38044;45.148;39.604;2022-12-29T10:53:19;8.90;;;2.40;;
52031;SDS011;38044;45.148;39.604;2022-12-29T10:55:49;7.97;;;4.70;;
52031;SDS011;38044;45.148;39.604;2022-12-29T10:58:15;5.45;;;2.58;;
52031;SDS011;38044;45.148;39.604;2022-12-29T11:00:42;3.47;;;2.92;;
52031;SDS011;38044;45.148;39.604;2022-12-29T11:05:57;3.80;;;1.60;;
52031;SDS011;38044;45.148;39.604;2022-12-29T11:08:38;4.03;;;1.80;;
52031;SDS011;38044;45.148;39.604;2022-12-29T11:11:09;3.25;;;1.48;;
52031;SDS011;38044;45.148;39.604;2022-12-29T11:13:57;12.63;;;7.32;;
52031;SDS011;38044;45.148;39.604;2022-12-29T11:16:36;11.75;;;6.80;;
52031;SDS011;38044;45.148;39.604;2022-12-29T11:19:02;5.40;;;2.60;;
52031;SDS011;38044;45.148;39.604;2022-12-29T11:23:59;4.35;;;2.10;;
52031;SDS011;38044;45.148;39.604;2022-12-29T11:26:27;4.13;;;2.42;;
52031;SDS011;38044;45.148;39.604;2022-12-29T11:29:11;4.65;;;2.63;;
52031;SDS011;38044;45.148;39.604;2022-12-29T11:31:47;3.67;;;1.40;;
52031;SDS011;38044;45.148;39.604;2022-12-29T11:34:20;4.55;;;1.45;;
52031;SDS011;38044;45.148;39.604;2022-12-29T11:36:49;3.28;;;1.20;;
52031;SDS011;38044;45.148;39.604;2022-12-29T11:41:58;4.68;;;2.80;;
52031;SDS011;38044;45.148;39.604;2022-12-29T11:44:26;17.30;;;7.60;;
52031;SDS011;38044;45.148;39.604;2022-12-29T11:46:52;7.28;;;3.05;;
52031;SDS011;38044;45.148;39.604;2022-12-29T11:49:23;5.68;;;3.50;;
52031;SDS011;38044;45.148;39.604;2022-12-29T11:51:51;4.53;;;3.80;;
52031;SDS011;38044;45.148;39.604;2022-12-29T11:54:32;4.90;;;3.00;;
52031;SDS011;38044;45.148;39.604;2022-12-29T11:57:14;3.15;;;1.70;;
52031;SDS011;38044;45.148;39.604;2022-12-29T11:59:48;4.80;;;2.20;;
52031;SDS011;38044;45.148;39.604;2022-12-29T12:02:30;4.73;;;2.03;;
52031;SDS011;38044;45.148;39.604;2022-12-29T12:05:08;26.85;;;11.52;;
52031;SDS011;38044;45.148;39.604;2022-12-29T12:07:40;5.22;;;3.40;;
52031;SDS011;38044;45.148;39.604;2022-12-29T12:10:15;5.82;;;3.05;;
52031;SDS011;38044;45.148;39.604;2022-12-29T12:18:32;5.80;;;4.60;;
52031;SDS011;38044;45.148;39.604;2022-12-29T12:24:05;10.63;;;6.90;;
52031;SDS011;38044;45.148;39.604;2022-12-29T12:26:42;14.13;;;9.00;;
52031;SDS011;38044;45.148;39.604;2022-12-29T12:29:16;17.50;;;10.95;;
52031;SDS011;38044;45.148;39.604;2022-12-29T12:31:49;10.52;;;6.88;;
52031;SDS011;38044;45.148;39.604;2022-12-29T12:34:24;24.80;;;19.27;;
52031;SDS011;38044;45.148;39.604;2022-12-29T12:39:35;9.52;;;7.95;;
52031;SDS011;38044;45.148;39.604;2022-12-29T12:45:02;10.55;;;6.55;;
52031;SDS011;38044;45.148;39.604;2022-12-29T12:50:30;22.38;;;12.13;;
52031;SDS011;38044;45.148;39.604;2022-12-29T12:53:26;48.22;;;23.40;;
52031;SDS011;38044;45.148;39.604;2022-12-29T12:59:11;89.18;;;36.42;;
52031;SDS011;38044;45.148;39.604;2022-12-29T13:02:17;22.52;;;10.65;;
52031;SDS011;38044;45.148;39.604;2022-12-29T13:12:53;18.20;;;8.13;;
52031;SDS011;38044;45.148;39.604;2022-12-29T13:15:45;22.98;;;8.95;;
52031;SDS011;38044;45.148;39.604;2022-12-29T13:36:54;16.60;;;6.97;;
52031;SDS011;38044;45.148;39.604;2022-12-29T13:44:59;13.68;;;6.97;;
52031;SDS011;38044;45.148;39.604;2022-12-29T13:47:40;14.95;;;8.43;;
52031;SDS011;38044;45.148;39.604;2022-12-29T13:50:18;26.48;;;11.77;;
52031;SDS011;38044;45.148;39.604;2022-12-29T13:55:35;50.95;;;16.63;;
52031;SDS011;38044;45.148;39.604;2022-12-29T13:58:14;54.25;;;16.58;;
52031;SDS011;38044;45.148;39.604;2022-12-29T14:08:37;41.95;;;15.05;;
52031;SDS011;38044;45.148;39.604;2022-12-29T14:11:10;47.40;;;16.95;;
52031;SDS011;38044;45.148;39.604;2022-12-29T14:13:38;52.03;;;17.45;;
52031;SDS011;38044;45.148;39.604;2022-12-29T14:16:06;38.47;;;16.27;;
52031;SDS011;38044;45.148;39.604;2022-12-29T14:18:41;46.95;;;18.85;;
52031;SDS011;38044;45.148;39.604;2022-12-29T14:21:10;32.70;;;14.40;;
52031;SDS011;38044;45.148;39.604;2022-12-29T14:23:45;30.95;;;12.77;;
52031;SDS011;38044;45.148;39.604;2022-12-29T14:26:14;36.88;;;11.70;;
52031;SDS011;38044;45.148;39.604;2022-12-29T14:29:45;22.20;;;9.45;;
52031;SDS011;38044;45.148;39.604;2022-12-29T14:31:54;18.27;;;9.65;;
52031;SDS011;38044;45.148;39.604;2022-12-29T14:36:52;21.17;;;9.30;;
52031;SDS011;38044;45.148;39.604;2022-12-29T14:42:05;22.77;;;8.27;;
52031;SDS011;38044;45.148;39.604;2022-12-29T14:44:32;20.73;;;7.85;;
52031;SDS011;38044;45.148;39.604;2022-12-29T14:47:00;21.60;;;8.05;;
52031;SDS011;38044;45.148;39.604;2022-12-29T14:49:32;16.10;;;8.10;;
52031;SDS011;38044;45.148;39.604;2022-12-29T14:52:18;16.35;;;7.50;;
52031;SDS011;38044;45.148;39.604;2022-12-29T14:57:22;19.63;;;8.50;;
52031;SDS011;38044;45.148;39.604;2022-12-29T14:59:53;16.48;;;8.05;;
52031;SDS011;38044;45.148;39.604;2022-12-29T15:02:24;17.63;;;8.10;;
52031;SDS011;38044;45.148;39.604;2022-12-29T15:07:24;22.58;;;8.68;;
52031;SDS011;38044;45.148;39.604;2022-12-29T15:09:56;17.55;;;8.23;;
52031;SDS011;38044;45.148;39.604;2022-12-29T15:12:41;16.35;;;7.88;;
52031;SDS011;38044;45.148;39.604;2022-12-29T15:15:20;19.17;;;8.77;;
52031;SDS011;38044;45.148;39.604;2022-12-29T15:17:48;21.80;;;8.52;;
52031;SDS011;38044;45.148;39.604;2022-12-29T15:20:16;17.52;;;9.10;;
52031;SDS011;38044;45.148;39.604;2022-12-29T15:22:55;25.23;;;10.35;;
52031;SDS011;38044;45.148;39.604;2022-12-29T15:25:21;22.95;;;10.02;;
52031;SDS011;38044;45.148;39.604;2022-12-29T15:27:48;17.98;;;8.63;;
52031;SDS011;38044;45.148;39.604;2022-12-29T15:30:16;25.48;;;9.50;;
52031;SDS011;38044;45.148;39.604;2022-12-29T15:32:43;19.33;;;8.88;;
52031;SDS011;38044;45.148;39.604;2022-12-29T15:37:56;25.58;;;9.75;;
52031;SDS011;38044;45.148;39.604;2022-12-29T15:40:27;28.30;;;10.20;;
52031;SDS011;38044;45.148;39.604;2022-12-29T15:43:08;30.80;;;11.13;;
52031;SDS011;38044;45.148;39.604;2022-12-29T15:45:49;28.90;;;11.00;;
52031;SDS011;38044;45.148;39.604;2022-12-29T15:48:17;27.08;;;10.85;;
52031;SDS011;38044;45.148;39.604;2022-12-29T15:50:46;39.97;;;11.02;;
52031;SDS011;38044;45.148;39.604;2022-12-29T15:53:17;31.83;;;11.40;;
52031;SDS011;38044;45.148;39.604;2022-12-29T15:55:49;43.53;;;13.98;;
52031;SDS011;38044;45.148;39.604;2022-12-29T15:58:20;48.83;;;13.90;;
52031;SDS011;38044;45.148;39.604;2022-12-29T16:00:50;42.10;;;12.00;;
52031;SDS011;38044;45.148;39.604;2022-12-29T16:03:22;28.10;;;10.82;;
52031;SDS011;38044;45.148;39.604;2022-12-29T16:05:51;21.75;;;8.13;;
52031;SDS011;38044;45.148;39.604;2022-12-29T16:08:29;20.13;;;7.88;;
52031;SDS011;38044;45.148;39.604;2022-12-29T16:11:02;24.98;;;18.50;;
52031;SDS011;38044;45.148;39.604;2022-12-29T16:14:02;18.38;;;10.23;;
52031;SDS011;38044;45.148;39.604;2022-12-29T16:16:38;22.92;;;10.73;;
52031;SDS011;38044;45.148;39.604;2022-12-29T16:19:10;13.05;;;7.63;;
52031;SDS011;38044;45.148;39.604;2022-12-29T16:21:40;15.13;;;7.55;;
52031;SDS011;38044;45.148;39.604;2022-12-29T16:24:29;24.63;;;8.80;;
52031;SDS011;38044;45.148;39.604;2022-12-29T16:27:02;17.00;;;9.20;;
52031;SDS011;38044;45.148;39.604;2022-12-29T16:29:49;14.95;;;8.75;;
52031;SDS011;38044;45.148;39.604;2022-12-29T16:32:23;20.80;;;10.43;;
52031;SDS011;38044;45.148;39.604;2022-12-29T16:37:38;26.88;;;14.88;;
52031;SDS011;38044;45.148;39.604;2022-12-29T16:47:45;26.33;;;13.57;;
52031;SDS011;38044;45.148;39.604;2022-12-29T16:50:13;20.75;;;10.60;;
52031;SDS011;38044;45.148;39.604;2022-12-29T16:52:47;15.13;;;9.30;;
52031;SDS011;38044;45.148;39.604;2022-12-29T16:55:17;12.98;;;8.13;;
52031;SDS011;38044;45.148;39.604;2022-12-29T16:57:45;10.13;;;7.15;;
52031;SDS011;38044;45.148;39.604;2022-12-29T17:00:22;13.98;;;7.47;;
52031;SDS011;38044;45.148;39.604;2022-12-29T17:02:52;12.15;;;6.47;;
52031;SDS011;38044;45.148;39.604;2022-12-29T17:05:21;13.35;;;6.85;;
52031;SDS011;38044;45.148;39.604;2022-12-29T17:07:48;12.68;;;7.05;;
52031;SDS011;38044;45.148;39.604;2022-12-29T17:10:17;9.23;;;6.10;;
52031;SDS011;38044;45.148;39.604;2022-12-29T17:12:44;8.40;;;5.80;;
52031;SDS011;38044;45.148;39.604;2022-12-29T17:15:21;14.40;;;6.18;;